Kellogg, Minnesota
Current Conditions -  °F | °C
As of 6:54 PM on Saturday 22 Nov 2014 (Local Time) from KONA Reporting Station
Haze Haze  
Wind Chill:   Ceiling: 300
Heat Index:   Visibility: 1mi
Dew Point:   Wind: 5mph
Humidity: 93%   Direction: 150°SSE
Pressure: 29.69"   Gusts: NA
Location:  44.31°N, 92°W
Report Text: KONA 230054Z AUTO 15004KT 1SM BR OVC003 03/02 A2969 RMK AO2
Loading
Personal Weather Stations






























Interactive Weather Map New forecast layout! Learn more

10-Day Weather Forecast

Advertisements
Track Severe Weather on mobile